Extreme weather reports worldwide

High winds

Station
 
Location
 
Name
 
Wind
Knots
Gust
Knots
Vis
SM
Temp/Dew
C
Baro
inHg
METAR
 
KMWN 67 78 0.06 -16/-16 KMWN 251855Z 28067G78KT 1/16SM -SHSN FZFG BLSN VV001 M16/M16 RMK SNE25SHSNB25 VRY LGT ICG
ENQR 44 7/4 29.62 ENQR 251920Z AUTO 29044KT 9999NDV OVC013/// 07/04 Q1003 W///S6
CTB KCTB Cut Bank, US Cut Bank International Airport 42 47 10 0/-9 29.65 KCTB 251856Z AUTO 24042G47KT 10SM CLR 00/M09 A2965 RMK AO2 PK WND 24051/1839 SLP072 T00001094
CWQK 42 50 6/ CWQK 251900Z AUTO 25042G50KT 06/ RMK AO1 PK WND 25050/1858 SLP148 T0064 58019
LVM KLVM Livingston, US Mission Field 41 49 10 1/-12 29.89 KLVM 251853Z AUTO 21041G49KT 10SM FEW120 01/M13 A2989 RMK AO2 PK WND 20060/1809 SLP158 T00111128

Station
 
Location
 
Name
 
Wind
Knots
Gust
Knots
Vis
SM
Temp/Dew
C
Baro
inHg
METAR
 
ENSE 41 7/5 29.73 ENSE 251920Z AUTO 30041KT 9999NDV BKN013/// 07/05 Q1007 W///S6
ENSL NO Sleipner A Platform 41 8/5 30.03 ENSL 251920Z AUTO 28041KT 9999NDV BKN029/// 08/05 Q1017 W05/S4
CXBR 40 1/-10 CXBR 251900Z AUTO 25040KT 01/M11 RMK AO1 PK WND 24053/1809 T00111106
ENGC 40 6.21 7/5 29.79 ENGC 251920Z 30040KT 9999 -SHRA BKN010 07/05 Q1009 W06/S5
CXBW 39 3/-9 CXBW 251900Z AUTO 24039KT 04/M09 RMK AO1 PK WND 24054/1837 T00361090
CWRU 38 47 6/1 CWRU 251900Z AUTO 28038G47KT 07/02 RMK AO1 PK WND 28047/1850 SLP140 T00660019 58005
ENQA NO Troll A Platform 38 7/5 29.79 ENQA 251920Z AUTO 28038KT 9999NDV BKN008/// OVC040/// 07/05 Q1009 W06/S6
ENSF 38 / ENSF 251920Z AUTO 30038KT 9999NDV NCD ///// Q//// W///S5
K6S0 38 47 10 3/-15 29.82 K6S0 251935Z AUTO 26038G47KT 10SM CLR 03/M15 A2982 RMK A01
CPIR 37 2/-8 CPIR 251900Z AUTO 24037KT 03/M09 RMK AO1 PK WND 23052/1839 T00271088
CWQS 37 44 6/3 CWQS 251900Z AUTO 31037G44KT 06/03 RMK AO1 4PAST HR 1051 PK WND 31053/1829 SLP089 P0002 T00630030 50004
CWWL 37 50 5/3 CWWL 251900Z AUTO 31037G50KT 06/03 RMK AO1 6PAST HR 3056 PK WND 31051/1848 SLP038 P0002 T00580030 50006
FBU ENFB Oslo, NO Oslo, Fornebu Airport 37 7/4 29.76 ENFB 251920Z AUTO 29037KT 9999NDV BKN015/// 07/04 Q1008 W///S5
TNC PATC Tin City, US Tin City Long Range Radar Station Airport 36 10 -25/-28 29.85 PATC 251855Z AUTO 02036KT 10SM CLR M25/M28 A2985 RMK AO2 PK WND 02038/1839 SNB1708E1810SHSNB1758E1808 SLP122 T12551283
CXWM 35 2/-6 CXWM 251900Z AUTO 25035KT 02/M06 RMK AO1 PK WND 24043/1855 T00201064
YBK CYBK Baker Lake, CA Baker Lake Airport 35 0.13 -38/-42 29.53 CYBK 251900Z 32035KT 1/8SM -SN +BLSN BKN003 M38/M42 A2953 RMK BLSN2ST4 SLP004
WPC CZPC Pincher Creek, CA Pincher Creek Airport 35 46 9 0/-10 29.56 CZPC 251900Z AUTO 25035G46KT 9SM CLR M00/M10 A2956 RMK SLP055
ENHM 35 8/4 29.97 ENHM 251920Z AUTO 27035KT 9999NDV SCT035/// BKN040/// 08/04 Q1015 W07/S5
ENQC NO Troll C Platform 35 8/6 29.76 ENQC 251920Z AUTO 26035KT 9999NDV -SHRA OVC010/// 08/06 Q1008 W///S6
GTF KGTF Great Falls, US Great Falls International Airport 34 48 10 0/-18 29.73 KGTF 251853Z 22034G48KT 10SM FEW120 01/M18 A2973 RMK AO2 PK WND 22048/1849 PRESFR SLP111 T00061183 $
K1GM 34 41 10 -1/-16 29.73 K1GM 251858Z AUTO 22034G41KT 10SM M M01/M16 A2973 RMK AO2 PK WND 22041/49 PRESFR SLP111 T10131163 $
CXFM 34 0/-6 CXFM 251900Z AUTO 23034KT 01/M06 RMK AO1 PK WND 22043/1811 T00051062
KEKS Ennis, US Ennis Big Sky Airport 34 40 10 -5/-12 30.01 KEKS 251935Z AUTO 18034G40KT 10SM FEW065 SCT080 M05/M12 A3001 RMK AO2
PAUT Akutan, US Akun Airport 34 40 7 5/4 29.96 PAUT 251935Z AUTO 18034G40KT 7SM OVC003 05/05 A2996 RMK AO2 T00510047 PWINO
CWBK 33 38 -2/-2 CWBK 251900Z AUTO 30033G38KT M02/M03 RMK AO1 0PAST HR PRESRR SOG 20 3045 PK WND 30042/1822 SLP960 P0004 T10201028 50010
CWRO 33 45 5/4 CWRO 251900Z AUTO 29033G45KT 06/05 RMK AO1 PK WND 29056/1805 SLP034 T00570046 51077
CXDB 33 -1/-9 CXDB 251900Z AUTO 24033KT M02/M09 RMK AO1 PK WND 24040/1859 T10191090
CWBV 32 40 1/-2 CWBV 251900Z AUTO 30032G40KT 02/M02 RMK AO1 PK WND 31042/1839 T00151020
CWSP 32 6/3 CWSP 251900Z AUTO 26032KT 07/03 RMK AO1 PK WND 27042/1821 SLP164 T00670030 50002
GFA KGFA Great Falls, US Malmstrom Air Force Base 31 39 10 0/-17 29.76 KGFA 251858Z AUTO 23031G39KT 10SM OVC110 01/M17 A2976 RMK AO2 PK WND 23043/45 SLP117 T00061170 $
CPFI 31 3/-8 CPFI 251900Z AUTO 26031KT 03/M09 RMK AO1 PK WND 26045/1851 T00341088
CWQV 31 37 / CWQV 251900Z AUTO 28031G37KT RMK AO1 PK WND 28040/1840
CWVU 31 36 2/-6 CWVU 251900Z AUTO 28031G36KT 03/M07 RMK AO1 PK WND 29039/1802 SLP058 T00271066 51023
ENOA NO Oseberg A Platform 31 6.21 7/6 29.79 ENOA 251920Z 28031KT 9999 FEW015 BKN030 07/06 Q1009 W///S6
KGDP 30 7/-3 30.09 KGDP 251851Z AUTO 06030KT CLR 08/M04 A3009 RMK AO2 PK WND 05036/1800 SLP161 T00781039
CWGM 30 43 -1/-10 CWGM 251900Z AUTO 22030G43KT M01/M10 RMK AO1 PK WND 21058/1816 T10141100
CWJU 30 39 5/3 CWJU 251900Z AUTO 29030G39KT 05/03 RMK AO1 3PAST HR 1067 PK WND 29041/1836 SLP072 P0001 T00520031 50003
CWKP 30 -37/-40 29.72 CWKP 251900Z AUTO 24030KT ////SM NCD M37/M40 A2972
CWLP 30 36 6/-14 CWLP 251900Z AUTO 27030G36KT 06/M14 RMK AO1 PK WND 27040/1820 SLP120 T00611142 51003
CWPX 30 37 -35/-40 29.44 CWPX 251900Z AUTO 32030G37KT ////SM //// BKN003 M35/M40 A2944
YEK CYEK Arviat, CA Arviat Airport 30 36 0 -31/-35 29.58 CYEK 251900Z 32030G36KT 0SM +BLSN VV003 M31/M35 A2958 RMK BLSN8 SLP021
BSF PHSF Camp Pohakuloa, US Bradshaw Army Airfield 29 35 10 11/7 30.27 PHSF 251858Z AUTO 13029G35KT 10SM CLR 12/07 A3027 RMK AO2 PK WND 12035/44 SLP153 T01180073 TSNO $
CXMM 29 -6/-8 CXMM 251900Z AUTO 00029KT M07/M09 RMK AO1 SOG 12 SLP953 T10651089
YQL CYQL Lethbridge, CA Lethbridge County Airport 29 35 60 2/-10 29.60 CYQL 251900Z 25029G35KT 60SM FEW080 BKN270 02/M10 A2960 RMK AC1CI4 PRESFR SLP057
MDO PAMD Middleton Island, US Middleton Island Airport 28 38 9 3/-1 29.56 PAMD 251851Z AUTO 29028G38KT 9SM CLR 04/M02 A2956 RMK AO2 PK WND 28039/1759 SLP996 T00391017